Time;durP1;ratioP1;P1;durP2;ratioP2;P2;SDS_P1;SDS_P2;PMS_P1;PMS_P2;Temp;Humidity;BMP_temperature;BMP_pressure;BME280_temperature;BME280_humidity;BME280_pressure;Samples;Min_cycle;Max_cycle;Signal;HPM_P1;HPM_P2
2023/11/09 00:00:59;;;;;;;10.93;6.65;;;;;;;;;;5071418;28;20204;-64
2023/11/09 00:03:27;;;;;;;11.63;6.78;;;;;;;;;;5070467;28;20693;-64
2023/11/09 00:05:57;;;;;;;13.05;5.97;;;;;;;;;;5051137;28;20241;-64
2023/11/09 00:08:25;;;;;;;9.20;6.22;;;;;;;;;;5071603;28;20208;-64
2023/11/09 00:10:53;;;;;;;10.38;6.30;;;;;;;;;;5070109;28;20230;-64
2023/11/09 00:13:22;;;;;;;25.10;7.07;;;;;;;;;;5070725;28;20199;-64
2023/11/09 00:15:50;;;;;;;6.40;5.70;;;;;;;;;;5072724;28;20233;-68
2023/11/09 00:18:22;;;;;;;12.93;5.80;;;;;;;;;;5072248;28;20203;-67
2023/11/09 00:20:50;;;;;;;8.80;5.15;;;;;;;;;;5070595;28;20578;-68
2023/11/09 00:23:20;;;;;;;11.50;6.38;;;;;;;;;;5071885;28;20200;-67
2023/11/09 00:25:48;;;;;;;13.43;8.32;;;;;;;;;;5071297;28;20659;-67
2023/11/09 00:28:18;;;;;;;14.45;9.35;;;;;;;;;;5071462;28;20206;-66
2023/11/09 00:30:46;;;;;;;17.58;10.10;;;;;;;;;;5071857;28;20679;-67
2023/11/09 00:33:15;;;;;;;23.08;12.20;;;;;;;;;;5072045;28;20210;-68
2023/11/09 00:35:45;;;;;;;13.30;8.85;;;;;;;;;;5053623;28;20204;-67
2023/11/09 00:38:15;;;;;;;11.73;8.10;;;;;;;;;;5069763;28;20210;-67
2023/11/09 00:40:44;;;;;;;9.70;6.47;;;;;;;;;;5053623;28;20195;-67
2023/11/09 00:43:13;;;;;;;11.13;6.97;;;;;;;;;;5068372;28;20219;-67
2023/11/09 00:45:41;;;;;;;16.67;8.35;;;;;;;;;;5066833;28;20203;-67
2023/11/09 00:48:10;;;;;;;11.48;8.45;;;;;;;;;;5070513;28;20203;-67
2023/11/09 00:50:38;;;;;;;8.98;7.30;;;;;;;;;;5069987;28;20238;-63
2023/11/09 00:53:06;;;;;;;7.50;6.75;;;;;;;;;;5070533;28;20585;-64
2023/11/09 00:55:35;;;;;;;11.48;6.65;;;;;;;;;;5071165;28;20196;-62
2023/11/09 00:58:04;;;;;;;8.02;6.50;;;;;;;;;;5071933;28;20569;-63
2023/11/09 01:00:32;;;;;;;7.95;6.15;;;;;;;;;;5071197;28;20233;-63
2023/11/09 01:03:00;;;;;;;11.73;7.15;;;;;;;;;;5058095;28;20568;-63
2023/11/09 01:05:29;;;;;;;10.80;7.55;;;;;;;;;;5070207;28;20564;-62
2023/11/09 01:07:57;;;;;;;11.77;6.60;;;;;;;;;;5071754;28;20241;-63
2023/11/09 01:10:25;;;;;;;7.50;6.75;;;;;;;;;;5070581;28;20575;-63
2023/11/09 01:12:53;;;;;;;9.27;7.10;;;;;;;;;;5071836;28;20210;-64
2023/11/09 01:15:23;;;;;;;8.98;6.97;;;;;;;;;;5070630;28;20662;-63
2023/11/09 01:18:02;;;;;;;15.13;7.35;;;;;;;;;;5071167;28;20191;-63
2023/11/09 01:20:32;;;;;;;13.60;7.65;;;;;;;;;;5070778;28;20213;-62
2023/11/09 01:23:00;;;;;;;9.45;8.07;;;;;;;;;;5053646;28;20212;-63
2023/11/09 01:25:28;;;;;;;10.60;7.47;;;;;;;;;;5071077;28;20200;-62
2023/11/09 01:27:56;;;;;;;9.07;8.07;;;;;;;;;;5069729;28;20218;-63
2023/11/09 01:30:26;;;;;;;12.27;8.35;;;;;;;;;;5052854;28;20241;-63
2023/11/09 01:32:56;;;;;;;10.68;8.57;;;;;;;;;;5070399;28;20200;-63
2023/11/09 01:35:24;;;;;;;14.90;8.35;;;;;;;;;;5071332;28;20685;-63
2023/11/09 01:37:52;;;;;;;12.32;8.45;;;;;;;;;;5070644;28;20211;-63
2023/11/09 01:40:23;;;;;;;14.27;9.23;;;;;;;;;;5070839;28;20204;-64
2023/11/09 01:42:52;;;;;;;11.10;8.75;;;;;;;;;;5070646;28;20188;-64
2023/11/09 01:45:20;;;;;;;14.52;8.98;;;;;;;;;;5070889;28;20208;-63
2023/11/09 01:47:50;;;;;;;9.88;8.00;;;;;;;;;;5070411;28;20200;-63
2023/11/09 01:50:18;;;;;;;10.52;8.60;;;;;;;;;;5052782;28;20218;-64
2023/11/09 01:52:46;;;;;;;12.55;8.75;;;;;;;;;;5070661;28;20204;-63
2023/11/09 01:55:15;;;;;;;12.05;7.90;;;;;;;;;;5070931;28;20199;-64
2023/11/09 01:57:43;;;;;;;16.35;8.98;;;;;;;;;;5070251;28;20647;-63
2023/11/09 02:00:13;;;;;;;11.85;8.75;;;;;;;;;;5053380;28;20200;-64
2023/11/09 02:02:42;;;;;;;10.75;9.02;;;;;;;;;;5053801;28;20712;-61
2023/11/09 02:05:12;;;;;;;8.93;8.02;;;;;;;;;;5073905;28;20203;-61
2023/11/09 02:07:40;;;;;;;11.35;8.18;;;;;;;;;;5074091;28;20204;-62
2023/11/09 02:10:11;;;;;;;10.38;8.75;;;;;;;;;;5073961;28;20241;-61
2023/11/09 02:12:40;;;;;;;9.00;8.18;;;;;;;;;;5074586;28;20240;-62
2023/11/09 02:15:08;;;;;;;11.13;8.32;;;;;;;;;;5065558;28;20208;-62
2023/11/09 02:17:37;;;;;;;8.13;7.32;;;;;;;;;;5059378;28;20204;-63
2023/11/09 02:20:05;;;;;;;10.32;8.65;;;;;;;;;;5074185;28;20192;-63
2023/11/09 02:22:53;;;;;;;10.38;8.20;;;;;;;;;;5072997;28;20249;-63
2023/11/09 02:25:24;;;;;;;8.70;7.80;;;;;;;;;;5074313;28;20195;-64
2023/11/09 02:27:53;;;;;;;12.60;8.85;;;;;;;;;;5055800;28;20196;-63
2023/11/09 02:30:22;;;;;;;8.85;7.38;;;;;;;;;;5074201;28;20244;-63
2023/11/09 02:32:50;;;;;;;10.98;7.07;;;;;;;;;;5055336;28;20200;-61
2023/11/09 02:35:19;;;;;;;8.35;6.95;;;;;;;;;;5074155;28;20192;-63
2023/11/09 02:37:47;;;;;;;7.95;7.15;;;;;;;;;;5073795;28;20208;-63
2023/11/09 02:40:16;;;;;;;9.77;6.60;;;;;;;;;;5074271;28;20207;-63
2023/11/09 02:42:45;;;;;;;8.15;6.95;;;;;;;;;;5072846;28;20203;-63
2023/11/09 02:45:13;;;;;;;11.45;6.55;;;;;;;;;;5043283;28;20652;-63
2023/11/09 02:47:42;;;;;;;8.85;6.15;;;;;;;;;;5055484;28;20200;-64
2023/11/09 02:50:10;;;;;;;10.27;6.82;;;;;;;;;;5073747;28;20250;-63
2023/11/09 02:52:39;;;;;;;10.13;7.60;;;;;;;;;;5072960;28;20210;-64
2023/11/09 02:55:07;;;;;;;7.22;5.60;;;;;;;;;;5057531;28;20188;-63
2023/11/09 02:57:35;;;;;;;9.70;6.38;;;;;;;;;;5073605;28;20204;-64
2023/11/09 03:00:06;;;;;;;7.10;6.22;;;;;;;;;;5039209;28;20724;-63
2023/11/09 03:02:34;;;;;;;9.13;6.43;;;;;;;;;;5071720;28;20196;-64
2023/11/09 03:05:03;;;;;;;10.52;5.68;;;;;;;;;;5054823;28;20195;-63
2023/11/09 03:07:31;;;;;;;9.00;6.20;;;;;;;;;;5073909;28;20208;-63
2023/11/09 03:10:00;;;;;;;10.32;5.97;;;;;;;;;;5073645;28;20257;-64
2023/11/09 03:12:28;;;;;;;8.90;6.72;;;;;;;;;;5073008;28;20230;-63
2023/11/09 03:14:56;;;;;;;8.18;6.30;;;;;;;;;;5071052;28;20654;-64
2023/11/09 03:17:26;;;;;;;9.15;6.88;;;;;;;;;;5073018;28;20562;-61
2023/11/09 03:19:54;;;;;;;7.30;6.22;;;;;;;;;;5072828;28;20604;-62
2023/11/09 03:22:22;;;;;;;9.77;6.40;;;;;;;;;;5071290;28;20196;-61
2023/11/09 03:24:50;;;;;;;11.88;6.68;;;;;;;;;;5072628;28;20214;-63
2023/11/09 03:27:19;;;;;;;8.05;6.03;;;;;;;;;;5072354;28;20210;-64
2023/11/09 03:29:47;;;;;;;6.32;5.72;;;;;;;;;;5072591;28;20208;-64
2023/11/09 03:32:15;;;;;;;9.80;5.85;;;;;;;;;;5072460;28;20215;-61
2023/11/09 03:34:45;;;;;;;12.63;6.65;;;;;;;;;;5069085;28;20261;-61
2023/11/09 03:37:13;;;;;;;9.82;6.65;;;;;;;;;;5054290;28;20206;-62
2023/11/09 03:39:41;;;;;;;11.25;6.53;;;;;;;;;;5072246;28;20210;-65
2023/11/09 03:42:11;;;;;;;9.18;6.57;;;;;;;;;;5072734;28;20200;-64
2023/11/09 03:44:40;;;;;;;8.30;6.25;;;;;;;;;;5072840;28;20704;-64
2023/11/09 03:47:09;;;;;;;8.40;6.15;;;;;;;;;;5072632;28;20208;-64
2023/11/09 03:49:40;;;;;;;12.30;6.57;;;;;;;;;;5071719;28;20204;-64
2023/11/09 03:52:10;;;;;;;9.90;5.97;;;;;;;;;;5071838;28;20694;-64
2023/11/09 03:54:38;;;;;;;12.07;6.78;;;;;;;;;;5071874;28;20659;-64
2023/11/09 03:57:07;;;;;;;12.77;6.13;;;;;;;;;;5072578;28;20196;-64
2023/11/09 03:59:36;;;;;;;7.68;5.72;;;;;;;;;;5072532;28;20204;-64
2023/11/09 04:02:04;;;;;;;9.60;6.45;;;;;;;;;;5068905;28;20560;-62
2023/11/09 04:04:32;;;;;;;9.57;5.22;;;;;;;;;;5070758;28;20200;-65
2023/11/09 04:07:00;;;;;;;9.35;5.95;;;;;;;;;;5071907;28;20557;-64
2023/11/09 04:09:30;;;;;;;7.10;5.43;;;;;;;;;;5072536;28;20218;-64
2023/11/09 04:11:58;;;;;;;5.90;5.30;;;;;;;;;;5071773;28;20247;-64
2023/11/09 04:14:26;;;;;;;6.43;5.53;;;;;;;;;;5071037;28;20206;-64
2023/11/09 04:16:54;;;;;;;6.75;5.47;;;;;;;;;;5077855;28;20211;-64
2023/11/09 04:19:22;;;;;;;7.53;5.75;;;;;;;;;;5072238;28;20200;-63
2023/11/09 04:21:51;;;;;;;7.85;7.15;;;;;;;;;;5071941;28;20196;-61
2023/11/09 04:24:19;;;;;;;9.60;5.40;;;;;;;;;;5072248;28;20273;-64
2023/11/09 04:26:48;;;;;;;17.40;5.35;;;;;;;;;;5071358;28;20247;-62
2023/11/09 04:29:19;;;;;;;5.05;4.50;;;;;;;;;;5071212;28;20200;-62
2023/11/09 04:31:47;;;;;;;6.75;4.93;;;;;;;;;;5072332;28;20575;-62
2023/11/09 04:34:15;;;;;;;8.18;4.60;;;;;;;;;;5071434;28;20290;-62
2023/11/09 04:36:44;;;;;;;5.63;5.13;;;;;;;;;;5071704;28;20208;-63
2023/11/09 04:39:14;;;;;;;4.82;4.43;;;;;;;;;;5070643;28;20218;-62
2023/11/09 04:41:42;;;;;;;5.75;4.07;;;;;;;;;;5071961;28;20196;-62
2023/11/09 04:44:12;;;;;;;6.90;4.85;;;;;;;;;;5071165;28;20246;-62
2023/11/09 04:46:41;;;;;;;5.38;4.90;;;;;;;;;;5066629;28;20203;-64
2023/11/09 04:49:09;;;;;;;5.05;4.55;;;;;;;;;;5070915;28;20543;-64
2023/11/09 04:51:37;;;;;;;9.38;5.38;;;;;;;;;;5071676;28;20211;-62
2023/11/09 04:54:16;;;;;;;5.18;4.65;;;;;;;;;;5071351;28;20550;-62
2023/11/09 04:57:03;;;;;;;4.93;4.40;;;;;;;;;;5071629;28;20198;-62
2023/11/09 05:07:47;;;;;;;8.45;5.85;;;;;;;;;;5029409;28;20207;-63
2023/11/09 05:10:16;;;;;;;5.07;4.57;;;;;;;;;;5071249;28;20233;-62
2023/11/09 05:12:44;;;;;;;4.70;4.30;;;;;;;;;;5070790;28;20228;-63
2023/11/09 05:15:14;;;;;;;5.55;4.28;;;;;;;;;;5070057;28;20210;-62
2023/11/09 05:17:42;;;;;;;4.97;4.57;;;;;;;;;;5071331;28;21816;-63
2023/11/09 05:20:13;;;;;;;5.55;5.05;;;;;;;;;;5070559;28;20200;-62
2023/11/09 05:22:41;;;;;;;7.80;6.75;;;;;;;;;;5071324;28;20210;-62
2023/11/09 05:25:11;;;;;;;9.55;8.65;;;;;;;;;;5070895;28;20671;-62
2023/11/09 05:27:40;;;;;;;7.20;5.53;;;;;;;;;;5052843;28;20661;-62
2023/11/09 05:30:09;;;;;;;24.77;19.67;;;;;;;;;;5070442;28;20200;-63
2023/11/09 05:32:40;;;;;;;8.55;7.72;;;;;;;;;;5071034;28;20557;-63
2023/11/09 05:35:10;;;;;;;4.72;4.10;;;;;;;;;;5070816;28;20257;-63
2023/11/09 05:37:38;;;;;;;5.97;3.20;;;;;;;;;;5070750;28;20204;-62
2023/11/09 05:40:09;;;;;;;5.70;4.88;;;;;;;;;;5071149;28;20252;-62
2023/11/09 05:42:42;;;;;;;5.15;4.00;;;;;;;;;;5070303;28;20184;-63
2023/11/09 05:45:11;;;;;;;4.82;3.67;;;;;;;;;;5070347;28;20233;-63
2023/11/09 05:47:41;;;;;;;5.80;3.70;;;;;;;;;;5071525;28;20203;-63
2023/11/09 05:50:10;;;;;;;4.50;3.88;;;;;;;;;;5070140;28;20685;-63
2023/11/09 05:52:38;;;;;;;6.47;4.72;;;;;;;;;;5070769;28;20287;-63
2023/11/09 05:55:07;;;;;;;12.10;7.20;;;;;;;;;;5070314;28;20226;-63
2023/11/09 05:57:36;;;;;;;11.50;5.72;;;;;;;;;;5070137;28;20204;-64
2023/11/09 06:00:05;;;;;;;5.95;5.45;;;;;;;;;;5069540;28;20199;-63
2023/11/09 06:02:34;;;;;;;4.85;4.38;;;;;;;;;;5070059;28;20188;-64
2023/11/09 06:05:03;;;;;;;4.95;4.45;;;;;;;;;;5069620;28;20204;-63
2023/11/09 06:07:31;;;;;;;7.43;4.90;;;;;;;;;;5058021;28;20196;-63
2023/11/09 06:10:00;;;;;;;3.45;3.25;;;;;;;;;;5070049;28;20253;-63
2023/11/09 06:12:29;;;;;;;4.00;3.70;;;;;;;;;;5069293;28;20246;-63
2023/11/09 06:14:57;;;;;;;5.05;3.17;;;;;;;;;;5068303;28;20206;-63
2023/11/09 06:17:25;;;;;;;4.93;4.35;;;;;;;;;;5066029;28;20577;-63
2023/11/09 06:19:53;;;;;;;3.72;3.42;;;;;;;;;;5068518;28;20609;-64
2023/11/09 06:22:23;;;;;;;3.42;2.80;;;;;;;;;;5066998;28;20192;-63
2023/11/09 06:24:51;;;;;;;4.15;3.28;;;;;;;;;;5069607;28;20204;-64
2023/11/09 06:27:20;;;;;;;4.63;3.55;;;;;;;;;;5069889;28;20196;-63
2023/11/09 06:29:48;;;;;;;3.38;2.42;;;;;;;;;;5050306;28;20293;-63
2023/11/09 06:32:16;;;;;;;3.63;3.30;;;;;;;;;;5069590;28;20625;-64
2023/11/09 06:34:45;;;;;;;3.60;3.03;;;;;;;;;;5071715;28;20196;-61
2023/11/09 06:37:13;;;;;;;3.65;2.85;;;;;;;;;;5077704;28;20282;-62
2023/11/09 06:39:46;;;;;;;2.72;2.53;;;;;;;;;;5078047;28;20278;-61
2023/11/09 06:42:15;;;;;;;3.40;2.28;;;;;;;;;;5059295;28;20263;-61
2023/11/09 06:44:44;;;;;;;2.38;2.17;;;;;;;;;;5077379;28;20329;-61
2023/11/09 06:47:13;;;;;;;3.17;2.22;;;;;;;;;;5076733;28;20279;-62
2023/11/09 06:49:41;;;;;;;4.55;3.03;;;;;;;;;;5079330;28;20259;-61
2023/11/09 06:52:09;;;;;;;4.97;2.90;;;;;;;;;;5080946;28;20303;-61
2023/11/09 06:54:38;;;;;;;3.15;2.85;;;;;;;;;;5081638;28;20287;-61
2023/11/09 06:57:11;;;;;;;4.45;2.80;;;;;;;;;;5080955;28;20255;-64
2023/11/09 06:59:39;;;;;;;3.05;2.88;;;;;;;;;;5079552;28;20474;-63
2023/11/09 07:02:08;;;;;;;3.05;2.75;;;;;;;;;;5078683;28;20274;-62
2023/11/09 07:04:36;;;;;;;3.50;3.20;;;;;;;;;;5047205;28;20274;-65
2023/11/09 07:07:05;;;;;;;3.47;3.17;;;;;;;;;;5080651;28;20719;-62
2023/11/09 07:09:33;;;;;;;4.15;2.60;;;;;;;;;;5063883;28;20645;-61
2023/11/09 07:12:01;;;;;;;2.75;2.55;;;;;;;;;;5079107;28;20310;-61
2023/11/09 07:14:31;;;;;;;3.25;2.95;;;;;;;;;;5078640;28;20263;-61
2023/11/09 07:16:59;;;;;;;8.35;3.65;;;;;;;;;;5079145;28;20275;-62
2023/11/09 07:19:28;;;;;;;2.75;2.55;;;;;;;;;;5079531;28;20734;-61
2023/11/09 07:21:57;;;;;;;3.20;2.90;;;;;;;;;;5077893;28;20795;-64
2023/11/09 07:24:29;;;;;;;3.13;2.92;;;;;;;;;;5079316;28;20468;-62
2023/11/09 07:26:57;;;;;;;4.50;2.92;;;;;;;;;;5078834;28;20271;-61
2023/11/09 07:29:25;;;;;;;3.30;3.00;;;;;;;;;;5078279;28;20204;-62
2023/11/09 07:31:55;;;;;;;3.25;2.95;;;;;;;;;;5078306;28;20671;-62
2023/11/09 07:34:23;;;;;;;6.53;3.13;;;;;;;;;;5079074;28;20267;-62
2023/11/09 07:36:51;;;;;;;3.25;2.95;;;;;;;;;;5079079;28;20334;-62
2023/11/09 07:39:21;;;;;;;3.05;2.70;;;;;;;;;;5079412;28;20291;-62
2023/11/09 07:41:49;;;;;;;3.35;3.15;;;;;;;;;;5079117;28;20291;-62
2023/11/09 07:44:17;;;;;;;4.03;3.50;;;;;;;;;;5079337;28;20345;-62
2023/11/09 07:46:46;;;;;;;3.67;2.97;;;;;;;;;;5079646;28;20286;-62
2023/11/09 07:49:15;;;;;;;7.93;3.00;;;;;;;;;;5079375;28;20338;-62
2023/11/09 07:51:44;;;;;;;5.50;2.60;;;;;;;;;;5078578;28;20259;-62
2023/11/09 07:54:12;;;;;;;4.22;2.95;;;;;;;;;;5078871;28;20226;-62
2023/11/09 07:56:40;;;;;;;3.33;3.13;;;;;;;;;;5060236;28;20211;-62
2023/11/09 07:59:08;;;;;;;2.70;2.50;;;;;;;;;;5077795;28;20286;-62
2023/11/09 08:01:37;;;;;;;3.15;2.85;;;;;;;;;;5059816;28;20272;-61
2023/11/09 08:04:08;;;;;;;6.10;3.35;;;;;;;;;;5077865;28;20641;-62
2023/11/09 08:06:38;;;;;;;3.83;3.15;;;;;;;;;;5059287;28;20248;-65
2023/11/09 08:09:09;;;;;;;3.70;2.90;;;;;;;;;;5050113;28;20275;-64
2023/11/09 08:11:38;;;;;;;2.80;2.60;;;;;;;;;;5077678;28;20231;-62
2023/11/09 08:14:06;;;;;;;12.10;8.93;;;;;;;;;;5077866;28;20216;-65
2023/11/09 08:16:35;;;;;;;22.00;15.18;;;;;;;;;;5076507;28;20255;-63
2023/11/09 08:19:04;;;;;;;11.60;9.25;;;;;;;;;;5077892;28;20722;-61
2023/11/09 08:21:34;;;;;;;45.42;25.95;;;;;;;;;;5080330;28;20706;-61
2023/11/09 08:24:04;;;;;;;5.55;5.05;;;;;;;;;;5045497;28;20266;-62
2023/11/09 08:26:33;;;;;;;5.07;4.25;;;;;;;;;;5066076;28;20287;-61
2023/11/09 08:29:02;;;;;;;11.10;6.38;;;;;;;;;;5060254;28;20291;-62
2023/11/09 08:31:33;;;;;;;10.38;7.35;;;;;;;;;;5070720;28;20256;-61
2023/11/09 08:34:01;;;;;;;14.15;10.00;;;;;;;;;;5062638;28;20294;-61
2023/11/09 08:36:30;;;;;;;57.65;35.60;;;;;;;;;;5081278;28;20260;-62
2023/11/09 08:38:58;;;;;;;9.30;5.65;;;;;;;;;;5079687;28;20267;-62
2023/11/09 08:41:27;;;;;;;25.25;16.75;;;;;;;;;;5080425;28;20275;-61
2023/11/09 08:43:56;;;;;;;14.00;8.65;;;;;;;;;;5073506;28;20336;-62
2023/11/09 08:46:24;;;;;;;19.85;11.25;;;;;;;;;;5059918;28;20287;-62
2023/11/09 08:48:52;;;;;;;43.10;16.85;;;;;;;;;;5058282;28;20726;-61
2023/11/09 08:51:20;;;;;;;14.70;7.70;;;;;;;;;;5058634;28;20287;-62
2023/11/09 08:53:49;;;;;;;47.85;17.60;;;;;;;;;;5073385;28;20298;-63
2023/11/09 08:56:17;;;;;;;109.32;29.23;;;;;;;;;;5079235;28;20267;-62
2023/11/09 08:58:48;;;;;;;20.88;12.40;;;;;;;;;;5079045;28;20287;-61
2023/11/09 09:01:20;;;;;;;39.47;17.13;;;;;;;;;;5077824;28;20306;-61
2023/11/09 09:03:50;;;;;;;43.33;20.85;;;;;;;;;;5078804;28;20244;-61
2023/11/09 09:06:20;;;;;;;5.85;5.25;;;;;;;;;;5079285;28;20272;-61
2023/11/09 09:08:49;;;;;;;7.70;6.30;;;;;;;;;;5078513;28;20283;-61
2023/11/09 09:11:18;;;;;;;4.63;4.25;;;;;;;;;;5077538;28;20315;-61
2023/11/09 09:13:48;;;;;;;3.75;3.28;;;;;;;;;;5077638;28;20311;-60
2023/11/09 09:16:16;;;;;;;3.55;3.25;;;;;;;;;;5059743;28;20282;-61
2023/11/09 09:18:46;;;;;;;4.55;3.67;;;;;;;;;;5062048;28;20255;-61
2023/11/09 09:21:15;;;;;;;3.25;2.92;;;;;;;;;;5061661;28;20632;-61
2023/11/09 09:23:44;;;;;;;3.42;3.10;;;;;;;;;;5079253;28;20282;-60
2023/11/09 09:26:12;;;;;;;4.00;3.20;;;;;;;;;;5078852;28;20263;-61
2023/11/09 09:28:47;;;;;;;3.67;3.35;;;;;;;;;;5078804;28;20263;-61
2023/11/09 09:31:18;;;;;;;3.13;2.92;;;;;;;;;;5077371;28;20271;-61
2023/11/09 09:33:57;;;;;;;4.03;3.45;;;;;;;;;;5059055;28;20299;-61
2023/11/09 09:36:26;;;;;;;3.80;3.40;;;;;;;;;;5077029;28;20278;-61
2023/11/09 09:38:56;;;;;;;6.30;3.50;;;;;;;;;;5076291;28;20256;-61
2023/11/09 09:41:28;;;;;;;4.07;3.50;;;;;;;;;;5058259;28;20266;-61
2023/11/09 09:43:57;;;;;;;5.15;3.65;;;;;;;;;;5075544;28;20277;-62
2023/11/09 09:46:29;;;;;;;7.40;3.20;;;;;;;;;;5070764;28;20200;-67
2023/11/09 09:48:58;;;;;;;9.18;3.95;;;;;;;;;;5040300;28;20215;-68
2023/11/09 09:51:26;;;;;;;5.80;4.10;;;;;;;;;;5050561;28;21232;-68
2023/11/09 09:53:54;;;;;;;4.45;3.40;;;;;;;;;;5062639;28;20678;-68
2023/11/09 09:56:23;;;;;;;3.30;3.10;;;;;;;;;;5070652;28;20630;-67
2023/11/09 09:58:52;;;;;;;4.88;3.80;;;;;;;;;;5070738;28;20580;-67
2023/11/09 10:01:21;;;;;;;4.57;4.13;;;;;;;;;;5069295;28;20210;-65
2023/11/09 10:03:52;;;;;;;5.78;4.05;;;;;;;;;;5066462;28;20196;-66
2023/11/09 10:06:21;;;;;;;4.55;4.00;;;;;;;;;;5051862;28;20192;-66
2023/11/09 10:08:50;;;;;;;23.15;15.65;;;;;;;;;;5052661;28;20207;-67
2023/11/09 10:11:18;;;;;;;6.07;5.10;;;;;;;;;;5052306;28;20231;-66
2023/11/09 10:13:47;;;;;;;44.47;27.45;;;;;;;;;;5052462;28;20260;-66
2023/11/09 10:16:16;;;;;;;7.60;5.00;;;;;;;;;;5052371;28;20204;-67
2023/11/09 10:18:44;;;;;;;3.53;2.90;;;;;;;;;;5070531;28;20214;-67
2023/11/09 10:21:13;;;;;;;4.38;3.97;;;;;;;;;;5070464;28;20203;-66
2023/11/09 10:23:42;;;;;;;4.25;3.53;;;;;;;;;;5072579;28;20210;-67
2023/11/09 10:26:11;;;;;;;3.90;3.25;;;;;;;;;;5054121;28;20208;-66
2023/11/09 10:28:40;;;;;;;5.28;3.45;;;;;;;;;;5055729;28;20200;-66
2023/11/09 10:31:09;;;;;;;4.20;3.80;;;;;;;;;;5074461;28;20199;-66
2023/11/09 10:33:37;;;;;;;3.60;3.30;;;;;;;;;;5062689;28;20608;-66
2023/11/09 10:36:06;;;;;;;7.57;5.97;;;;;;;;;;5074157;28;20196;-66
2023/11/09 10:38:36;;;;;;;4.80;4.30;;;;;;;;;;5073924;28;20210;-67
2023/11/09 10:41:05;;;;;;;3.38;3.17;;;;;;;;;;5074289;28;20188;-68
2023/11/09 10:43:35;;;;;;;10.18;6.30;;;;;;;;;;5073093;28;20234;-68
2023/11/09 10:46:08;;;;;;;5.28;4.78;;;;;;;;;;5071481;28;20249;-62
2023/11/09 10:48:40;;;;;;;4.82;4.40;;;;;;;;;;5073601;28;20272;-66
2023/11/09 10:51:09;;;;;;;6.78;4.43;;;;;;;;;;5053775;28;20185;-66
2023/11/09 10:53:43;;;;;;;3.72;3.42;;;;;;;;;;5067107;28;20200;-66
2023/11/09 10:56:13;;;;;;;5.63;4.75;;;;;;;;;;5073171;28;20210;-67
2023/11/09 10:58:44;;;;;;;4.20;3.10;;;;;;;;;;5071875;28;20677;-66
2023/11/09 11:01:17;;;;;;;4.97;3.40;;;;;;;;;;5055039;28;20960;-67
2023/11/09 11:03:51;;;;;;;2.97;2.78;;;;;;;;;;5072320;28;20188;-66
2023/11/09 11:06:26;;;;;;;4.70;3.15;;;;;;;;;;5072423;28;20569;-66
2023/11/09 11:08:57;;;;;;;3.35;3.05;;;;;;;;;;5073016;28;20198;-67
2023/11/09 11:11:33;;;;;;;4.32;3.05;;;;;;;;;;5056423;28;20236;-67
2023/11/09 11:14:03;;;;;;;4.55;3.20;;;;;;;;;;5053762;28;20540;-66
2023/11/09 11:16:48;;;;;;;3.70;3.38;;;;;;;;;;5069150;28;20200;-66
2023/11/09 11:19:29;;;;;;;3.95;3.03;;;;;;;;;;5071867;28;20196;-67
2023/11/09 11:22:04;;;;;;;5.50;3.00;;;;;;;;;;5069560;28;20206;-66
2023/11/09 11:24:58;;;;;;;3.45;3.15;;;;;;;;;;5073024;28;20188;-66
2023/11/09 11:27:39;;;;;;;2.45;2.25;;;;;;;;;;5070742;28;20204;-66
2023/11/09 11:30:14;;;;;;;3.15;2.60;;;;;;;;;;5071033;28;20191;-66
2023/11/09 11:32:43;;;;;;;5.95;2.65;;;;;;;;;;5069695;28;20188;-66
2023/11/09 11:35:12;;;;;;;2.95;2.65;;;;;;;;;;5069172;28;20216;-67
2023/11/09 11:37:42;;;;;;;3.35;3.10;;;;;;;;;;5054271;28;20575;-66
2023/11/09 11:40:12;;;;;;;13.45;3.63;;;;;;;;;;5054381;28;20206;-66
2023/11/09 11:42:42;;;;;;;3.25;2.95;;;;;;;;;;5072187;28;20196;-66
2023/11/09 11:45:11;;;;;;;4.85;3.17;;;;;;;;;;5068915;28;20526;-66
2023/11/09 11:47:44;;;;;;;3.25;2.95;;;;;;;;;;5072363;28;20200;-68
2023/11/09 11:50:13;;;;;;;5.18;3.80;;;;;;;;;;5069771;28;20195;-67
2023/11/09 11:52:41;;;;;;;3.15;2.95;;;;;;;;;;5072229;28;20203;-66
2023/11/09 11:55:10;;;;;;;8.30;5.70;;;;;;;;;;5072070;28;20216;-67
2023/11/09 11:57:54;;;;;;;5.63;5.15;;;;;;;;;;5072033;28;20200;-66
2023/11/09 12:00:37;;;;;;;3.45;2.67;;;;;;;;;;5065944;28;20654;-68
2023/11/09 12:03:05;;;;;;;3.60;2.22;;;;;;;;;;5052110;28;20199;-68
2023/11/09 12:05:34;;;;;;;3.92;3.63;;;;;;;;;;5070059;28;20192;-67
2023/11/09 12:08:03;;;;;;;4.75;2.60;;;;;;;;;;5071705;28;20200;-68
2023/11/09 12:10:32;;;;;;;2.67;2.35;;;;;;;;;;5071203;28;20261;-67
2023/11/09 12:13:00;;;;;;;2.78;2.50;;;;;;;;;;5054442;28;20188;-68
2023/11/09 12:15:30;;;;;;;3.20;2.00;;;;;;;;;;5068956;28;20684;-67
2023/11/09 12:17:58;;;;;;;2.17;2.08;;;;;;;;;;5055852;28;20647;-68
2023/11/09 12:20:30;;;;;;;3.88;1.85;;;;;;;;;;5068844;28;20202;-67
2023/11/09 12:23:00;;;;;;;5.30;1.70;;;;;;;;;;5066468;28;20244;-69
2023/11/09 12:25:28;;;;;;;1.70;1.60;;;;;;;;;;5068153;28;20685;-68
2023/11/09 12:27:57;;;;;;;1.58;1.48;;;;;;;;;;5052649;28;20249;-66
2023/11/09 12:30:25;;;;;;;2.13;1.40;;;;;;;;;;5070059;28;20202;-68
2023/11/09 12:32:56;;;;;;;1.65;1.55;;;;;;;;;;5071636;28;20204;-68
2023/11/09 12:35:25;;;;;;;2.08;1.60;;;;;;;;;;5053599;28;20208;-68
2023/11/09 12:38:01;;;;;;;1.98;1.63;;;;;;;;;;5072506;28;20204;-68
2023/11/09 12:40:30;;;;;;;2.53;1.83;;;;;;;;;;5070452;28;20190;-67
2023/11/09 12:43:00;;;;;;;1.88;1.35;;;;;;;;;;5069175;28;20630;-67
2023/11/09 12:45:29;;;;;;;1.30;1.20;;;;;;;;;;5081061;28;20207;-67
2023/11/09 12:47:59;;;;;;;1.52;1.42;;;;;;;;;;5081668;28;20207;-67
2023/11/09 12:50:33;;;;;;;2.60;1.35;;;;;;;;;;5073121;28;20234;-68
2023/11/09 12:53:02;;;;;;;0.98;0.90;;;;;;;;;;5070345;28;20534;-68
2023/11/09 12:55:32;;;;;;;4.13;1.10;;;;;;;;;;5069713;28;20212;-67
2023/11/09 12:58:01;;;;;;;5.37;1.37;;;;;;;;;;5071458;28;20675;-68
2023/11/09 13:00:30;;;;;;;1.63;1.50;;;;;;;;;;5069845;28;20632;-67
2023/11/09 13:03:03;;;;;;;1.73;1.40;;;;;;;;;;5068314;28;20977;-67
2023/11/09 13:05:33;;;;;;;4.30;1.40;;;;;;;;;;5052656;28;21163;-68
2023/11/09 13:08:08;;;;;;;1.10;1.00;;;;;;;;;;5071318;28;20560;-67
2023/11/09 13:10:38;;;;;;;3.47;1.50;;;;;;;;;;5068041;28;20620;-65
2023/11/09 13:13:20;;;;;;;2.13;1.40;;;;;;;;;;5071330;28;20592;-67
2023/11/09 13:15:50;;;;;;;1.40;1.30;;;;;;;;;;5071451;28;20689;-67
2023/11/09 13:18:27;;;;;;;1.50;1.40;;;;;;;;;;5078221;28;20626;-67
2023/11/09 13:20:55;;;;;;;1.17;1.07;;;;;;;;;;5078015;28;20606;-67
2023/11/09 13:23:32;;;;;;;4.37;1.20;;;;;;;;;;5078642;28;20628;-67
2023/11/09 13:26:01;;;;;;;0.90;0.90;;;;;;;;;;5078897;28;20972;-67
2023/11/09 13:28:29;;;;;;;2.27;1.90;;;;;;;;;;5076281;28;20618;-67
2023/11/09 13:31:03;;;;;;;1.30;1.20;;;;;;;;;;5071073;28;20606;-68
2023/11/09 13:33:34;;;;;;;3.27;1.37;;;;;;;;;;5070977;28;20591;-67
2023/11/09 13:36:04;;;;;;;1.00;0.90;;;;;;;;;;5071394;28;20646;-67
2023/11/09 13:38:40;;;;;;;3.53;1.40;;;;;;;;;;5071039;28;20612;-67
2023/11/09 13:41:18;;;;;;;1.40;1.30;;;;;;;;;;5071019;28;21200;-68
2023/11/09 13:43:59;;;;;;;21.80;13.63;;;;;;;;;;5065847;28;20666;-67
2023/11/09 13:46:28;;;;;;;12.27;7.10;;;;;;;;;;5053117;28;20591;-67
2023/11/09 13:49:10;;;;;;;3.13;2.83;;;;;;;;;;5058590;28;21286;-67
2023/11/09 13:51:40;;;;;;;1.20;1.13;;;;;;;;;;5056785;28;20598;-67
2023/11/09 13:54:23;;;;;;;2.23;1.40;;;;;;;;;;5070568;28;21166;-67
2023/11/09 13:59:42;;;;;;;3.53;1.50;;;;;;;;;;5073411;28;21156;-67
2023/11/09 14:02:16;;;;;;;3.72;1.20;;;;;;;;;;5074255;28;20624;-67
2023/11/09 14:04:50;;;;;;;2.10;0.90;;;;;;;;;;5073737;28;20188;-66
2023/11/09 14:07:18;;;;;;;1.55;1.15;;;;;;;;;;5074575;28;21116;-67
2023/11/09 14:09:47;;;;;;;6.50;1.45;;;;;;;;;;5073818;28;20210;-67
2023/11/09 14:12:36;;;;;;;2.45;1.50;;;;;;;;;;5074329;28;20228;-67
2023/11/09 14:15:18;;;;;;;1.20;1.10;;;;;;;;;;5073229;28;20190;-67
2023/11/09 14:17:49;;;;;;;1.65;1.45;;;;;;;;;;5056692;28;20196;-67
2023/11/09 14:20:30;;;;;;;2.87;1.50;;;;;;;;;;5072095;28;20188;-67
2023/11/09 14:23:02;;;;;;;1.55;1.35;;;;;;;;;;5074101;28;20608;-68
2023/11/09 14:25:30;;;;;;;1.40;1.30;;;;;;;;;;5073260;28;20192;-67
2023/11/09 14:27:58;;;;;;;1.60;1.50;;;;;;;;;;5074309;28;20621;-67
2023/11/09 14:30:31;;;;;;;2.13;2.03;;;;;;;;;;5074173;28;20622;-68
2023/11/09 14:33:01;;;;;;;3.55;2.50;;;;;;;;;;5071501;28;20602;-68
2023/11/09 14:35:32;;;;;;;3.30;2.40;;;;;;;;;;5074022;28;20207;-68
2023/11/09 14:38:03;;;;;;;2.08;1.98;;;;;;;;;;5071652;28;20191;-68
2023/11/09 14:40:35;;;;;;;2.83;1.92;;;;;;;;;;5074078;28;20559;-68
2023/11/09 14:43:03;;;;;;;2.85;1.70;;;;;;;;;;5074065;28;20195;-68
2023/11/09 14:45:33;;;;;;;3.42;1.83;;;;;;;;;;5073306;28;20559;-67
2023/11/09 14:48:02;;;;;;;1.70;1.30;;;;;;;;;;5071286;28;20210;-68
2023/11/09 14:50:34;;;;;;;2.95;2.58;;;;;;;;;;5068267;28;20208;-67
2023/11/09 14:53:09;;;;;;;1.90;1.70;;;;;;;;;;5056148;28;20192;-68
2023/11/09 14:55:38;;;;;;;3.92;2.70;;;;;;;;;;5055258;28;20622;-67
2023/11/09 14:58:10;;;;;;;3.35;3.05;;;;;;;;;;5073490;28;20196;-67
2023/11/09 15:00:41;;;;;;;4.43;2.10;;;;;;;;;;5073249;28;20638;-67
2023/11/09 15:03:18;;;;;;;1.98;1.77;;;;;;;;;;5072038;28;20198;-67
2023/11/09 15:05:51;;;;;;;4.03;1.80;;;;;;;;;;5071995;28;20199;-68